sensor_id;sensor_type;location;lat;lon;timestamp;P1;durP1;ratioP1;P2;durP2;ratioP2
3022;SDS011;1521;53.584;9.938;2023-02-28T00:00:39;6.07;;;2.67;;
3022;SDS011;1521;53.584;9.938;2023-02-28T00:03:05;6.33;;;2.33;;
3022;SDS011;1521;53.584;9.938;2023-02-28T00:05:30;6.00;;;2.70;;
3022;SDS011;1521;53.584;9.938;2023-02-28T00:07:56;7.20;;;2.80;;
3022;SDS011;1521;53.584;9.938;2023-02-28T00:10:24;7.10;;;2.60;;
3022;SDS011;1521;53.584;9.938;2023-02-28T00:12:51;5.17;;;2.23;;
3022;SDS011;1521;53.584;9.938;2023-02-28T00:15:18;9.90;;;3.53;;
3022;SDS011;1521;53.584;9.938;2023-02-28T00:17:45;5.60;;;2.03;;
3022;SDS011;1521;53.584;9.938;2023-02-28T00:20:11;6.90;;;2.80;;
3022;SDS011;1521;53.584;9.938;2023-02-28T00:22:38;4.33;;;2.03;;
3022;SDS011;1521;53.584;9.938;2023-02-28T00:25:11;4.07;;;2.00;;
3022;SDS011;1521;53.584;9.938;2023-02-28T00:27:39;4.70;;;1.97;;
3022;SDS011;1521;53.584;9.938;2023-02-28T00:30:05;8.43;;;2.43;;
3022;SDS011;1521;53.584;9.938;2023-02-28T00:32:33;2.50;;;2.03;;
3022;SDS011;1521;53.584;9.938;2023-02-28T00:34:59;5.03;;;2.17;;
3022;SDS011;1521;53.584;9.938;2023-02-28T00:37:25;3.40;;;2.17;;
3022;SDS011;1521;53.584;9.938;2023-02-28T00:39:51;3.00;;;1.80;;
3022;SDS011;1521;53.584;9.938;2023-02-28T00:42:16;4.00;;;2.30;;
3022;SDS011;1521;53.584;9.938;2023-02-28T00:44:42;7.20;;;2.37;;
3022;SDS011;1521;53.584;9.938;2023-02-28T00:47:08;9.37;;;2.73;;
3022;SDS011;1521;53.584;9.938;2023-02-28T00:49:33;8.53;;;2.97;;
3022;SDS011;1521;53.584;9.938;2023-02-28T00:51:59;8.83;;;2.60;;
3022;SDS011;1521;53.584;9.938;2023-02-28T00:54:24;3.80;;;2.50;;
3022;SDS011;1521;53.584;9.938;2023-02-28T00:56:50;5.70;;;2.80;;
3022;SDS011;1521;53.584;9.938;2023-02-28T00:59:16;8.10;;;2.87;;
3022;SDS011;1521;53.584;9.938;2023-02-28T01:01:42;8.00;;;2.63;;
3022;SDS011;1521;53.584;9.938;2023-02-28T01:04:10;4.23;;;2.60;;
3022;SDS011;1521;53.584;9.938;2023-02-28T01:06:36;6.80;;;2.87;;
3022;SDS011;1521;53.584;9.938;2023-02-28T01:09:02;8.10;;;2.60;;
3022;SDS011;1521;53.584;9.938;2023-02-28T01:11:29;4.33;;;2.43;;
3022;SDS011;1521;53.584;9.938;2023-02-28T01:13:55;10.60;;;2.90;;
3022;SDS011;1521;53.584;9.938;2023-02-28T01:16:21;6.37;;;2.50;;
3022;SDS011;1521;53.584;9.938;2023-02-28T01:18:47;7.30;;;3.03;;
3022;SDS011;1521;53.584;9.938;2023-02-28T01:21:14;5.23;;;2.83;;
3022;SDS011;1521;53.584;9.938;2023-02-28T01:23:41;5.43;;;2.80;;
3022;SDS011;1521;53.584;9.938;2023-02-28T01:26:08;7.03;;;2.10;;
3022;SDS011;1521;53.584;9.938;2023-02-28T01:28:44;5.33;;;2.80;;
3022;SDS011;1521;53.584;9.938;2023-02-28T01:31:10;8.60;;;2.47;;
3022;SDS011;1521;53.584;9.938;2023-02-28T01:33:36;3.73;;;2.33;;
3022;SDS011;1521;53.584;9.938;2023-02-28T01:36:03;4.00;;;2.40;;
3022;SDS011;1521;53.584;9.938;2023-02-28T01:38:35;7.30;;;2.33;;
3022;SDS011;1521;53.584;9.938;2023-02-28T01:41:01;4.83;;;2.40;;
3022;SDS011;1521;53.584;9.938;2023-02-28T01:43:31;6.17;;;2.60;;
3022;SDS011;1521;53.584;9.938;2023-02-28T01:46:09;7.10;;;2.80;;
3022;SDS011;1521;53.584;9.938;2023-02-28T01:48:37;7.30;;;2.33;;
3022;SDS011;1521;53.584;9.938;2023-02-28T01:51:08;4.60;;;2.43;;
3022;SDS011;1521;53.584;9.938;2023-02-28T01:53:43;5.50;;;2.40;;
3022;SDS011;1521;53.584;9.938;2023-02-28T01:56:12;4.60;;;2.17;;
3022;SDS011;1521;53.584;9.938;2023-02-28T01:58:46;4.07;;;2.60;;
3022;SDS011;1521;53.584;9.938;2023-02-28T02:01:13;3.03;;;2.50;;
3022;SDS011;1521;53.584;9.938;2023-02-28T02:03:57;3.67;;;2.37;;
3022;SDS011;1521;53.584;9.938;2023-02-28T02:06:34;4.90;;;2.50;;
3022;SDS011;1521;53.584;9.938;2023-02-28T02:09:03;8.43;;;2.70;;
3022;SDS011;1521;53.584;9.938;2023-02-28T02:11:29;4.33;;;3.23;;
3022;SDS011;1521;53.584;9.938;2023-02-28T02:16:46;11.00;;;4.80;;
3022;SDS011;1521;53.584;9.938;2023-02-28T02:19:28;13.23;;;5.17;;
3022;SDS011;1521;53.584;9.938;2023-02-28T02:24:55;10.07;;;5.50;;
3022;SDS011;1521;53.584;9.938;2023-02-28T02:27:48;14.80;;;5.93;;
3022;SDS011;1521;53.584;9.938;2023-02-28T02:30:53;17.83;;;6.10;;
3022;SDS011;1521;53.584;9.938;2023-02-28T02:36:38;16.93;;;5.83;;
3022;SDS011;1521;53.584;9.938;2023-02-28T02:42:14;17.97;;;7.40;;
3022;SDS011;1521;53.584;9.938;2023-02-28T02:44:51;16.67;;;7.67;;
3022;SDS011;1521;53.584;9.938;2023-02-28T02:47:24;16.97;;;8.40;;
3022;SDS011;1521;53.584;9.938;2023-02-28T02:49:53;23.60;;;9.20;;
3022;SDS011;1521;53.584;9.938;2023-02-28T02:52:23;25.57;;;10.30;;
3022;SDS011;1521;53.584;9.938;2023-02-28T02:54:54;26.73;;;10.67;;
3022;SDS011;1521;53.584;9.938;2023-02-28T02:57:24;26.00;;;12.57;;
3022;SDS011;1521;53.584;9.938;2023-02-28T02:59:55;36.40;;;15.47;;
3022;SDS011;1521;53.584;9.938;2023-02-28T03:02:21;45.20;;;17.80;;
3022;SDS011;1521;53.584;9.938;2023-02-28T03:04:50;54.03;;;18.57;;
3022;SDS011;1521;53.584;9.938;2023-02-28T03:07:18;45.90;;;18.07;;
3022;SDS011;1521;53.584;9.938;2023-02-28T03:09:51;56.90;;;22.17;;
3022;SDS011;1521;53.584;9.938;2023-02-28T03:12:18;65.27;;;24.47;;
3022;SDS011;1521;53.584;9.938;2023-02-28T03:17:35;54.57;;;22.63;;
3022;SDS011;1521;53.584;9.938;2023-02-28T03:20:18;61.13;;;25.27;;
3022;SDS011;1521;53.584;9.938;2023-02-28T03:26:04;70.50;;;27.33;;
3022;SDS011;1521;53.584;9.938;2023-02-28T03:28:53;85.93;;;28.90;;
3022;SDS011;1521;53.584;9.938;2023-02-28T03:31:33;88.43;;;31.03;;
3022;SDS011;1521;53.584;9.938;2023-02-28T03:34:50;141.10;;;46.83;;
3022;SDS011;1521;53.584;9.938;2023-02-28T03:37:11;167.80;;;53.33;;
3022;SDS011;1521;53.584;9.938;2023-02-28T03:39:45;152.53;;;50.33;;
3022;SDS011;1521;53.584;9.938;2023-02-28T03:42:20;145.83;;;49.53;;
3022;SDS011;1521;53.584;9.938;2023-02-28T03:47:34;163.47;;;53.23;;
3022;SDS011;1521;53.584;9.938;2023-02-28T03:50:04;153.70;;;53.10;;
3022;SDS011;1521;53.584;9.938;2023-02-28T03:52:47;161.47;;;53.07;;
3022;SDS011;1521;53.584;9.938;2023-02-28T03:55:28;151.17;;;47.87;;
3022;SDS011;1521;53.584;9.938;2023-02-28T03:58:01;145.70;;;47.20;;
3022;SDS011;1521;53.584;9.938;2023-02-28T04:00:43;133.10;;;43.03;;
3022;SDS011;1521;53.584;9.938;2023-02-28T04:03:12;129.20;;;43.13;;
3022;SDS011;1521;53.584;9.938;2023-02-28T04:05:51;116.47;;;38.93;;
3022;SDS011;1521;53.584;9.938;2023-02-28T04:08:18;115.13;;;39.33;;
3022;SDS011;1521;53.584;9.938;2023-02-28T04:10:45;97.40;;;35.40;;
3022;SDS011;1521;53.584;9.938;2023-02-28T04:13:18;79.60;;;31.00;;
3022;SDS011;1521;53.584;9.938;2023-02-28T04:15:43;103.10;;;33.37;;
3022;SDS011;1521;53.584;9.938;2023-02-28T04:18:09;102.43;;;32.20;;
3022;SDS011;1521;53.584;9.938;2023-02-28T04:20:34;97.87;;;33.53;;
3022;SDS011;1521;53.584;9.938;2023-02-28T04:23:00;90.53;;;33.67;;
3022;SDS011;1521;53.584;9.938;2023-02-28T04:25:25;89.03;;;32.50;;
3022;SDS011;1521;53.584;9.938;2023-02-28T04:27:51;94.63;;;32.63;;
3022;SDS011;1521;53.584;9.938;2023-02-28T04:30:17;94.97;;;32.37;;
3022;SDS011;1521;53.584;9.938;2023-02-28T04:32:42;90.20;;;31.80;;
3022;SDS011;1521;53.584;9.938;2023-02-28T04:35:08;101.13;;;32.07;;
3022;SDS011;1521;53.584;9.938;2023-02-28T04:37:33;83.53;;;32.17;;
3022;SDS011;1521;53.584;9.938;2023-02-28T04:40:01;87.23;;;29.53;;
3022;SDS011;1521;53.584;9.938;2023-02-28T04:42:28;69.70;;;26.67;;
3022;SDS011;1521;53.584;9.938;2023-02-28T04:45:00;78.57;;;28.73;;
3022;SDS011;1521;53.584;9.938;2023-02-28T04:47:28;93.37;;;31.27;;
3022;SDS011;1521;53.584;9.938;2023-02-28T04:49:54;78.90;;;31.70;;
3022;SDS011;1521;53.584;9.938;2023-02-28T04:52:20;82.03;;;29.73;;
3022;SDS011;1521;53.584;9.938;2023-02-28T04:54:45;65.13;;;25.90;;
3022;SDS011;1521;53.584;9.938;2023-02-28T04:57:11;56.43;;;24.17;;
3022;SDS011;1521;53.584;9.938;2023-02-28T04:59:37;45.80;;;17.57;;
3022;SDS011;1521;53.584;9.938;2023-02-28T05:02:02;48.57;;;20.00;;
3022;SDS011;1521;53.584;9.938;2023-02-28T05:04:34;46.10;;;19.27;;
3022;SDS011;1521;53.584;9.938;2023-02-28T05:07:00;48.80;;;20.20;;
3022;SDS011;1521;53.584;9.938;2023-02-28T05:09:27;50.13;;;18.77;;
3022;SDS011;1521;53.584;9.938;2023-02-28T05:11:53;44.63;;;16.67;;
3022;SDS011;1521;53.584;9.938;2023-02-28T05:14:19;32.03;;;14.53;;
3022;SDS011;1521;53.584;9.938;2023-02-28T05:16:45;32.30;;;14.53;;
3022;SDS011;1521;53.584;9.938;2023-02-28T05:19:11;37.37;;;14.77;;
3022;SDS011;1521;53.584;9.938;2023-02-28T05:21:37;35.33;;;14.93;;
3022;SDS011;1521;53.584;9.938;2023-02-28T05:24:05;27.70;;;13.57;;
3022;SDS011;1521;53.584;9.938;2023-02-28T05:26:35;36.73;;;14.53;;
3022;SDS011;1521;53.584;9.938;2023-02-28T05:29:01;41.23;;;13.97;;
3022;SDS011;1521;53.584;9.938;2023-02-28T05:31:27;35.30;;;15.40;;
3022;SDS011;1521;53.584;9.938;2023-02-28T05:33:53;33.80;;;13.90;;
3022;SDS011;1521;53.584;9.938;2023-02-28T05:36:18;35.87;;;14.53;;
3022;SDS011;1521;53.584;9.938;2023-02-28T05:38:48;33.13;;;13.40;;
3022;SDS011;1521;53.584;9.938;2023-02-28T05:41:14;33.77;;;12.67;;
3022;SDS011;1521;53.584;9.938;2023-02-28T05:43:41;30.77;;;12.37;;
3022;SDS011;1521;53.584;9.938;2023-02-28T05:46:07;27.53;;;12.40;;
3022;SDS011;1521;53.584;9.938;2023-02-28T05:48:35;24.70;;;11.37;;
3022;SDS011;1521;53.584;9.938;2023-02-28T05:51:01;31.87;;;13.90;;
3022;SDS011;1521;53.584;9.938;2023-02-28T05:53:28;35.83;;;13.00;;
3022;SDS011;1521;53.584;9.938;2023-02-28T05:55:54;45.90;;;17.80;;
3022;SDS011;1521;53.584;9.938;2023-02-28T05:58:20;45.53;;;17.87;;
3022;SDS011;1521;53.584;9.938;2023-02-28T06:00:46;30.07;;;14.23;;
3022;SDS011;1521;53.584;9.938;2023-02-28T06:03:12;34.63;;;15.77;;
3022;SDS011;1521;53.584;9.938;2023-02-28T06:05:37;29.63;;;13.53;;
3022;SDS011;1521;53.584;9.938;2023-02-28T06:08:03;35.13;;;13.23;;
3022;SDS011;1521;53.584;9.938;2023-02-28T06:10:30;24.27;;;12.83;;
3022;SDS011;1521;53.584;9.938;2023-02-28T06:12:59;27.63;;;12.60;;
3022;SDS011;1521;53.584;9.938;2023-02-28T06:15:28;28.30;;;12.87;;
3022;SDS011;1521;53.584;9.938;2023-02-28T06:17:54;26.80;;;12.80;;
3022;SDS011;1521;53.584;9.938;2023-02-28T06:20:21;27.63;;;12.80;;
3022;SDS011;1521;53.584;9.938;2023-02-28T06:22:47;26.20;;;11.57;;
3022;SDS011;1521;53.584;9.938;2023-02-28T06:25:15;23.90;;;11.40;;
3022;SDS011;1521;53.584;9.938;2023-02-28T06:27:41;25.90;;;11.30;;
3022;SDS011;1521;53.584;9.938;2023-02-28T06:30:08;24.60;;;11.93;;
3022;SDS011;1521;53.584;9.938;2023-02-28T06:32:34;25.50;;;11.13;;
3022;SDS011;1521;53.584;9.938;2023-02-28T06:35:00;24.47;;;11.93;;
3022;SDS011;1521;53.584;9.938;2023-02-28T06:37:26;28.00;;;12.47;;
3022;SDS011;1521;53.584;9.938;2023-02-28T06:39:52;21.80;;;10.37;;
3022;SDS011;1521;53.584;9.938;2023-02-28T06:42:20;22.33;;;10.90;;
3022;SDS011;1521;53.584;9.938;2023-02-28T06:44:47;22.17;;;11.07;;
3022;SDS011;1521;53.584;9.938;2023-02-28T06:47:12;18.23;;;10.63;;
3022;SDS011;1521;53.584;9.938;2023-02-28T06:49:38;26.53;;;11.63;;
3022;SDS011;1521;53.584;9.938;2023-02-28T06:52:04;22.47;;;11.97;;
3022;SDS011;1521;53.584;9.938;2023-02-28T06:54:30;24.03;;;11.17;;
3022;SDS011;1521;53.584;9.938;2023-02-28T06:56:57;20.40;;;11.90;;
3022;SDS011;1521;53.584;9.938;2023-02-28T06:59:23;21.87;;;10.23;;
3022;SDS011;1521;53.584;9.938;2023-02-28T07:01:48;21.37;;;10.30;;
3022;SDS011;1521;53.584;9.938;2023-02-28T07:04:14;27.93;;;12.17;;
3022;SDS011;1521;53.584;9.938;2023-02-28T07:06:40;18.33;;;10.67;;
3022;SDS011;1521;53.584;9.938;2023-02-28T07:09:05;22.43;;;10.60;;
3022;SDS011;1521;53.584;9.938;2023-02-28T07:11:31;22.20;;;11.07;;
3022;SDS011;1521;53.584;9.938;2023-02-28T07:13:56;17.10;;;11.10;;
3022;SDS011;1521;53.584;9.938;2023-02-28T07:16:23;21.83;;;10.30;;
3022;SDS011;1521;53.584;9.938;2023-02-28T07:18:51;18.87;;;10.40;;
3022;SDS011;1521;53.584;9.938;2023-02-28T07:21:17;21.27;;;10.43;;
3022;SDS011;1521;53.584;9.938;2023-02-28T07:23:43;22.37;;;11.60;;
3022;SDS011;1521;53.584;9.938;2023-02-28T07:26:11;27.97;;;11.00;;
3022;SDS011;1521;53.584;9.938;2023-02-28T07:28:39;14.43;;;9.27;;
3022;SDS011;1521;53.584;9.938;2023-02-28T07:31:07;24.83;;;9.73;;
3022;SDS011;1521;53.584;9.938;2023-02-28T07:33:34;22.17;;;9.50;;
3022;SDS011;1521;53.584;9.938;2023-02-28T07:36:01;22.70;;;9.60;;
3022;SDS011;1521;53.584;9.938;2023-02-28T07:38:33;23.23;;;9.93;;
3022;SDS011;1521;53.584;9.938;2023-02-28T07:40:59;20.77;;;10.33;;
3022;SDS011;1521;53.584;9.938;2023-02-28T07:43:25;18.37;;;9.60;;
3022;SDS011;1521;53.584;9.938;2023-02-28T07:45:50;24.57;;;9.43;;
3022;SDS011;1521;53.584;9.938;2023-02-28T07:48:16;18.17;;;8.77;;
3022;SDS011;1521;53.584;9.938;2023-02-28T07:50:41;19.30;;;9.20;;
3022;SDS011;1521;53.584;9.938;2023-02-28T07:53:07;14.87;;;8.00;;
3022;SDS011;1521;53.584;9.938;2023-02-28T07:55:33;14.93;;;7.40;;
3022;SDS011;1521;53.584;9.938;2023-02-28T07:57:58;13.23;;;7.50;;
3022;SDS011;1521;53.584;9.938;2023-02-28T08:00:24;11.33;;;6.20;;
3022;SDS011;1521;53.584;9.938;2023-02-28T08:02:50;11.30;;;6.63;;
3022;SDS011;1521;53.584;9.938;2023-02-28T08:05:16;13.30;;;5.80;;
3022;SDS011;1521;53.584;9.938;2023-02-28T08:07:42;10.30;;;6.13;;
3022;SDS011;1521;53.584;9.938;2023-02-28T08:10:07;11.70;;;6.50;;
3022;SDS011;1521;53.584;9.938;2023-02-28T08:12:34;12.45;;;5.70;;
3022;SDS011;1521;53.584;9.938;2023-02-28T08:15:00;8.93;;;5.03;;
3022;SDS011;1521;53.584;9.938;2023-02-28T08:17:26;7.17;;;4.57;;
3022;SDS011;1521;53.584;9.938;2023-02-28T08:19:52;9.07;;;4.70;;
3022;SDS011;1521;53.584;9.938;2023-02-28T08:22:18;13.00;;;4.80;;
3022;SDS011;1521;53.584;9.938;2023-02-28T08:24:43;5.40;;;3.83;;
3022;SDS011;1521;53.584;9.938;2023-02-28T08:27:09;7.80;;;4.10;;
3022;SDS011;1521;53.584;9.938;2023-02-28T08:29:38;5.30;;;4.03;;
3022;SDS011;1521;53.584;9.938;2023-02-28T08:32:04;8.17;;;4.20;;
3022;SDS011;1521;53.584;9.938;2023-02-28T08:34:30;7.23;;;3.63;;
3022;SDS011;1521;53.584;9.938;2023-02-28T08:36:56;5.70;;;3.97;;
3022;SDS011;1521;53.584;9.938;2023-02-28T08:39:22;10.53;;;4.30;;
3022;SDS011;1521;53.584;9.938;2023-02-28T08:41:48;7.30;;;3.13;;
3022;SDS011;1521;53.584;9.938;2023-02-28T08:44:13;6.50;;;2.60;;
3022;SDS011;1521;53.584;9.938;2023-02-28T08:46:39;4.50;;;2.80;;
3022;SDS011;1521;53.584;9.938;2023-02-28T08:49:04;4.50;;;2.83;;
3022;SDS011;1521;53.584;9.938;2023-02-28T08:51:30;4.00;;;2.60;;
3022;SDS011;1521;53.584;9.938;2023-02-28T08:53:58;4.90;;;2.40;;
3022;SDS011;1521;53.584;9.938;2023-02-28T08:56:25;4.07;;;2.40;;
3022;SDS011;1521;53.584;9.938;2023-02-28T08:58:53;4.67;;;2.50;;
3022;SDS011;1521;53.584;9.938;2023-02-28T09:01:24;7.63;;;2.70;;
3022;SDS011;1521;53.584;9.938;2023-02-28T09:03:52;11.87;;;2.87;;
3022;SDS011;1521;53.584;9.938;2023-02-28T09:06:19;5.23;;;2.53;;
3022;SDS011;1521;53.584;9.938;2023-02-28T09:08:46;2.73;;;1.97;;
3022;SDS011;1521;53.584;9.938;2023-02-28T09:11:11;4.83;;;1.97;;
3022;SDS011;1521;53.584;9.938;2023-02-28T09:13:38;1.90;;;1.50;;
3022;SDS011;1521;53.584;9.938;2023-02-28T09:16:04;6.40;;;1.83;;
3022;SDS011;1521;53.584;9.938;2023-02-28T09:18:33;2.10;;;1.50;;
3022;SDS011;1521;53.584;9.938;2023-02-28T09:20:59;6.10;;;1.90;;
3022;SDS011;1521;53.584;9.938;2023-02-28T09:23:29;2.73;;;1.77;;
3022;SDS011;1521;53.584;9.938;2023-02-28T09:25:55;6.13;;;2.10;;
3022;SDS011;1521;53.584;9.938;2023-02-28T09:28:21;1.80;;;1.70;;
3022;SDS011;1521;53.584;9.938;2023-02-28T09:30:48;2.50;;;1.67;;
3022;SDS011;1521;53.584;9.938;2023-02-28T09:33:16;3.50;;;1.80;;
3022;SDS011;1521;53.584;9.938;2023-02-28T09:35:45;6.83;;;1.53;;
3022;SDS011;1521;53.584;9.938;2023-02-28T09:38:11;1.60;;;1.30;;
3022;SDS011;1521;53.584;9.938;2023-02-28T09:40:38;2.10;;;1.37;;
3022;SDS011;1521;53.584;9.938;2023-02-28T09:43:11;1.23;;;1.13;;
3022;SDS011;1521;53.584;9.938;2023-02-28T09:45:40;2.63;;;1.30;;
3022;SDS011;1521;53.584;9.938;2023-02-28T09:48:31;1.73;;;1.50;;
3022;SDS011;1521;53.584;9.938;2023-02-28T09:51:46;1.57;;;1.23;;
3022;SDS011;1521;53.584;9.938;2023-02-28T09:54:28;4.70;;;1.50;;
3022;SDS011;1521;53.584;9.938;2023-02-28T10:05:12;3.33;;;1.70;;
3022;SDS011;1521;53.584;9.938;2023-02-28T10:10:41;2.33;;;2.13;;
3022;SDS011;1521;53.584;9.938;2023-02-28T10:16:05;3.00;;;1.80;;
3022;SDS011;1521;53.584;9.938;2023-02-28T10:18:56;6.50;;;2.27;;
3022;SDS011;1521;53.584;9.938;2023-02-28T10:21:39;4.90;;;2.40;;
3022;SDS011;1521;53.584;9.938;2023-02-28T10:24:20;3.03;;;2.07;;
3022;SDS011;1521;53.584;9.938;2023-02-28T10:26:56;5.30;;;1.90;;
3022;SDS011;1521;53.584;9.938;2023-02-28T10:29:26;5.80;;;2.03;;
3022;SDS011;1521;53.584;9.938;2023-02-28T10:31:54;2.20;;;1.80;;
3022;SDS011;1521;53.584;9.938;2023-02-28T10:34:20;3.80;;;1.80;;
3022;SDS011;1521;53.584;9.938;2023-02-28T10:36:46;1.80;;;1.70;;
3022;SDS011;1521;53.584;9.938;2023-02-28T10:42:21;5.30;;;2.07;;
3022;SDS011;1521;53.584;9.938;2023-02-28T10:44:47;2.03;;;1.83;;
3022;SDS011;1521;53.584;9.938;2023-02-28T10:47:14;2.57;;;1.90;;
3022;SDS011;1521;53.584;9.938;2023-02-28T10:49:49;4.03;;;1.90;;
3022;SDS011;1521;53.584;9.938;2023-02-28T10:52:37;2.90;;;1.80;;
3022;SDS011;1521;53.584;9.938;2023-02-28T10:55:13;3.30;;;2.47;;
3022;SDS011;1521;53.584;9.938;2023-02-28T10:57:47;3.10;;;1.70;;
3022;SDS011;1521;53.584;9.938;2023-02-28T11:00:15;4.90;;;1.70;;
3022;SDS011;1521;53.584;9.938;2023-02-28T11:02:44;3.00;;;1.50;;
3022;SDS011;1521;53.584;9.938;2023-02-28T11:10:38;2.07;;;1.87;;
3022;SDS011;1521;53.584;9.938;2023-02-28T11:13:04;2.23;;;1.60;;
3022;SDS011;1521;53.584;9.938;2023-02-28T11:15:31;3.50;;;2.13;;
3022;SDS011;1521;53.584;9.938;2023-02-28T11:18:00;3.13;;;1.80;;
3022;SDS011;1521;53.584;9.938;2023-02-28T11:20:38;2.90;;;1.93;;
3022;SDS011;1521;53.584;9.938;2023-02-28T11:23:04;2.40;;;1.80;;
3022;SDS011;1521;53.584;9.938;2023-02-28T11:25:37;3.97;;;2.23;;
3022;SDS011;1521;53.584;9.938;2023-02-28T11:28:04;4.90;;;1.90;;
3022;SDS011;1521;53.584;9.938;2023-02-28T11:30:49;1.50;;;1.40;;
3022;SDS011;1521;53.584;9.938;2023-02-28T11:33:31;4.77;;;2.00;;
3022;SDS011;1521;53.584;9.938;2023-02-28T11:36:24;3.70;;;2.00;;
3022;SDS011;1521;53.584;9.938;2023-02-28T11:38:54;2.80;;;1.80;;
3022;SDS011;1521;53.584;9.938;2023-02-28T11:41:47;6.03;;;2.10;;
3022;SDS011;1521;53.584;9.938;2023-02-28T11:50:37;3.23;;;1.80;;
3022;SDS011;1521;53.584;9.938;2023-02-28T11:56:03;5.80;;;2.17;;
3022;SDS011;1521;53.584;9.938;2023-02-28T12:03:58;8.30;;;2.20;;
3022;SDS011;1521;53.584;9.938;2023-02-28T12:06:48;2.50;;;2.10;;
3022;SDS011;1521;53.584;9.938;2023-02-28T12:19:05;2.43;;;1.77;;
3022;SDS011;1521;53.584;9.938;2023-02-28T12:22:12;4.33;;;2.10;;
3022;SDS011;1521;53.584;9.938;2023-02-28T12:27:24;2.93;;;2.30;;
3022;SDS011;1521;53.584;9.938;2023-02-28T12:32:51;5.10;;;2.30;;
3022;SDS011;1521;53.584;9.938;2023-02-28T12:35:26;3.60;;;2.07;;
3022;SDS011;1521;53.584;9.938;2023-02-28T12:38:04;3.30;;;2.37;;
3022;SDS011;1521;53.584;9.938;2023-02-28T12:40:45;2.33;;;2.00;;
3022;SDS011;1521;53.584;9.938;2023-02-28T12:43:16;9.17;;;2.80;;
3022;SDS011;1521;53.584;9.938;2023-02-28T12:48:21;3.10;;;2.13;;
3022;SDS011;1521;53.584;9.938;2023-02-28T12:50:52;3.40;;;2.10;;
3022;SDS011;1521;53.584;9.938;2023-02-28T12:53:23;3.70;;;2.50;;
3022;SDS011;1521;53.584;9.938;2023-02-28T12:58:50;5.00;;;2.90;;
3022;SDS011;1521;53.584;9.938;2023-02-28T13:01:31;3.40;;;2.70;;
3022;SDS011;1521;53.584;9.938;2023-02-28T13:10:11;4.97;;;3.37;;
3022;SDS011;1521;53.584;9.938;2023-02-28T13:12:46;11.23;;;3.30;;
3022;SDS011;1521;53.584;9.938;2023-02-28T13:15:18;5.63;;;3.00;;
3022;SDS011;1521;53.584;9.938;2023-02-28T13:17:50;8.10;;;3.20;;
3022;SDS011;1521;53.584;9.938;2023-02-28T13:22:49;4.20;;;3.20;;
3022;SDS011;1521;53.584;9.938;2023-02-28T13:27:57;6.20;;;3.63;;
3022;SDS011;1521;53.584;9.938;2023-02-28T13:46:36;5.37;;;2.93;;
3022;SDS011;1521;53.584;9.938;2023-02-28T13:49:32;7.03;;;3.17;;
3022;SDS011;1521;53.584;9.938;2023-02-28T14:00:43;5.27;;;2.90;;
3022;SDS011;1521;53.584;9.938;2023-02-28T14:05:44;5.93;;;3.67;;
3022;SDS011;1521;53.584;9.938;2023-02-28T14:08:17;7.80;;;3.10;;
3022;SDS011;1521;53.584;9.938;2023-02-28T14:10:49;6.30;;;3.23;;
3022;SDS011;1521;53.584;9.938;2023-02-28T14:15:58;3.83;;;2.63;;
3022;SDS011;1521;53.584;9.938;2023-02-28T14:18:30;5.10;;;3.13;;
3022;SDS011;1521;53.584;9.938;2023-02-28T14:21:43;3.80;;;2.30;;
3022;SDS011;1521;53.584;9.938;2023-02-28T14:35:05;10.07;;;3.30;;
3022;SDS011;1521;53.584;9.938;2023-02-28T14:37:51;5.43;;;3.23;;
3022;SDS011;1521;53.584;9.938;2023-02-28T14:40:25;5.50;;;3.47;;
3022;SDS011;1521;53.584;9.938;2023-02-28T14:42:58;4.80;;;3.30;;
3022;SDS011;1521;53.584;9.938;2023-02-28T14:45:29;4.77;;;2.83;;
3022;SDS011;1521;53.584;9.938;2023-02-28T14:47:57;6.70;;;3.77;;
3022;SDS011;1521;53.584;9.938;2023-02-28T14:50:27;3.63;;;2.90;;
3022;SDS011;1521;53.584;9.938;2023-02-28T14:52:55;7.50;;;3.27;;
3022;SDS011;1521;53.584;9.938;2023-02-28T14:55:35;7.38;;;2.90;;
3022;SDS011;1521;53.584;9.938;2023-02-28T14:58:03;6.23;;;3.33;;
3022;SDS011;1521;53.584;9.938;2023-02-28T15:00:35;7.73;;;3.23;;
3022;SDS011;1521;53.584;9.938;2023-02-28T15:03:18;7.80;;;3.40;;
3022;SDS011;1521;53.584;9.938;2023-02-28T15:05:51;14.27;;;2.80;;
3022;SDS011;1521;53.584;9.938;2023-02-28T15:08:22;5.43;;;3.37;;
3022;SDS011;1521;53.584;9.938;2023-02-28T15:10:52;6.67;;;4.07;;
3022;SDS011;1521;53.584;9.938;2023-02-28T15:13:20;11.37;;;3.83;;
3022;SDS011;1521;53.584;9.938;2023-02-28T15:15:51;3.97;;;3.40;;
3022;SDS011;1521;53.584;9.938;2023-02-28T15:20:52;8.73;;;3.30;;
3022;SDS011;1521;53.584;9.938;2023-02-28T15:23:19;6.13;;;3.57;;
3022;SDS011;1521;53.584;9.938;2023-02-28T15:25:46;5.07;;;3.30;;
3022;SDS011;1521;53.584;9.938;2023-02-28T15:28:18;9.20;;;3.33;;
3022;SDS011;1521;53.584;9.938;2023-02-28T15:30:57;5.77;;;3.20;;
3022;SDS011;1521;53.584;9.938;2023-02-28T15:33:25;5.63;;;3.60;;
3022;SDS011;1521;53.584;9.938;2023-02-28T15:36:03;9.10;;;3.60;;
3022;SDS011;1521;53.584;9.938;2023-02-28T15:38:36;7.70;;;3.27;;
3022;SDS011;1521;53.584;9.938;2023-02-28T15:41:02;5.83;;;3.13;;
3022;SDS011;1521;53.584;9.938;2023-02-28T15:43:34;10.10;;;3.43;;
3022;SDS011;1521;53.584;9.938;2023-02-28T15:48:36;7.90;;;3.30;;
3022;SDS011;1521;53.584;9.938;2023-02-28T15:51:08;6.77;;;3.40;;
3022;SDS011;1521;53.584;9.938;2023-02-28T15:53:39;6.53;;;3.60;;
3022;SDS011;1521;53.584;9.938;2023-02-28T15:56:26;10.87;;;3.70;;
3022;SDS011;1521;53.584;9.938;2023-02-28T15:58:57;9.87;;;3.67;;
3022;SDS011;1521;53.584;9.938;2023-02-28T16:01:31;4.33;;;3.10;;
3022;SDS011;1521;53.584;9.938;2023-02-28T16:04:03;7.63;;;3.70;;
3022;SDS011;1521;53.584;9.938;2023-02-28T16:09:03;3.40;;;3.00;;
3022;SDS011;1521;53.584;9.938;2023-02-28T16:11:33;6.10;;;3.83;;
3022;SDS011;1521;53.584;9.938;2023-02-28T16:14:03;6.23;;;3.17;;
3022;SDS011;1521;53.584;9.938;2023-02-28T16:16:30;4.50;;;3.23;;
3022;SDS011;1521;53.584;9.938;2023-02-28T16:18:57;8.70;;;3.20;;
3022;SDS011;1521;53.584;9.938;2023-02-28T16:21:23;4.97;;;3.40;;
3022;SDS011;1521;53.584;9.938;2023-02-28T16:23:50;6.90;;;3.30;;
3022;SDS011;1521;53.584;9.938;2023-02-28T16:26:18;9.30;;;3.20;;
3022;SDS011;1521;53.584;9.938;2023-02-28T16:28:48;6.10;;;3.20;;
3022;SDS011;1521;53.584;9.938;2023-02-28T16:31:15;5.40;;;3.30;;
3022;SDS011;1521;53.584;9.938;2023-02-28T16:33:42;5.00;;;3.07;;
3022;SDS011;1521;53.584;9.938;2023-02-28T16:36:12;5.83;;;3.30;;
3022;SDS011;1521;53.584;9.938;2023-02-28T16:38:41;10.10;;;3.47;;
3022;SDS011;1521;53.584;9.938;2023-02-28T16:41:07;5.33;;;3.60;;
3022;SDS011;1521;53.584;9.938;2023-02-28T16:43:41;7.83;;;4.03;;
3022;SDS011;1521;53.584;9.938;2023-02-28T16:46:09;7.33;;;3.63;;
3022;SDS011;1521;53.584;9.938;2023-02-28T16:48:36;7.70;;;3.30;;
3022;SDS011;1521;53.584;9.938;2023-02-28T16:51:02;7.23;;;2.93;;
3022;SDS011;1521;53.584;9.938;2023-02-28T16:53:29;9.10;;;3.00;;
3022;SDS011;1521;53.584;9.938;2023-02-28T16:55:55;5.13;;;3.10;;
3022;SDS011;1521;53.584;9.938;2023-02-28T16:58:21;5.70;;;3.27;;
3022;SDS011;1521;53.584;9.938;2023-02-28T17:00:50;7.10;;;3.80;;
3022;SDS011;1521;53.584;9.938;2023-02-28T17:05:48;8.30;;;3.43;;
3022;SDS011;1521;53.584;9.938;2023-02-28T17:08:13;6.40;;;4.17;;
3022;SDS011;1521;53.584;9.938;2023-02-28T17:10:39;11.20;;;3.80;;
3022;SDS011;1521;53.584;9.938;2023-02-28T17:13:04;11.30;;;3.57;;
3022;SDS011;1521;53.584;9.938;2023-02-28T17:15:32;7.20;;;3.53;;
3022;SDS011;1521;53.584;9.938;2023-02-28T17:17:58;11.53;;;4.00;;
3022;SDS011;1521;53.584;9.938;2023-02-28T17:20:24;11.80;;;3.73;;
3022;SDS011;1521;53.584;9.938;2023-02-28T17:22:51;5.13;;;3.60;;
3022;SDS011;1521;53.584;9.938;2023-02-28T17:25:17;6.63;;;4.20;;
3022;SDS011;1521;53.584;9.938;2023-02-28T17:27:43;5.73;;;3.50;;
3022;SDS011;1521;53.584;9.938;2023-02-28T17:30:12;10.93;;;4.33;;
3022;SDS011;1521;53.584;9.938;2023-02-28T17:32:45;7.10;;;2.67;;
3022;SDS011;1521;53.584;9.938;2023-02-28T17:35:11;5.50;;;3.40;;
3022;SDS011;1521;53.584;9.938;2023-02-28T17:37:38;6.00;;;3.40;;
3022;SDS011;1521;53.584;9.938;2023-02-28T17:40:04;6.40;;;3.70;;
3022;SDS011;1521;53.584;9.938;2023-02-28T17:42:30;11.73;;;5.40;;